sensor_id;sensor_type;location;lat;lon;timestamp;temperature;humidity
49579;DHT22;35483;50.828;3.228;2024-01-30T00:02:12;10.60;99.90
49579;DHT22;35483;50.828;3.228;2024-01-30T00:04:38;10.70;99.90
49579;DHT22;35483;50.828;3.228;2024-01-30T00:07:04;10.70;99.90
49579;DHT22;35483;50.828;3.228;2024-01-30T00:09:29;10.70;99.90
49579;DHT22;35483;50.828;3.228;2024-01-30T00:11:56;10.70;99.90
49579;DHT22;35483;50.828;3.228;2024-01-30T00:14:22;10.70;99.90
49579;DHT22;35483;50.828;3.228;2024-01-30T00:16:48;10.70;99.90
49579;DHT22;35483;50.828;3.228;2024-01-30T00:19:14;10.70;99.90
49579;DHT22;35483;50.828;3.228;2024-01-30T00:21:40;10.70;99.90
49579;DHT22;35483;50.828;3.228;2024-01-30T00:24:06;10.70;99.90
49579;DHT22;35483;50.828;3.228;2024-01-30T00:26:32;10.70;99.90
49579;DHT22;35483;50.828;3.228;2024-01-30T00:28:57;10.70;99.90
49579;DHT22;35483;50.828;3.228;2024-01-30T00:31:24;10.70;99.90
49579;DHT22;35483;50.828;3.228;2024-01-30T00:33:50;10.70;99.90
49579;DHT22;35483;50.828;3.228;2024-01-30T00:36:16;10.70;99.90
49579;DHT22;35483;50.828;3.228;2024-01-30T00:38:41;10.70;99.90
49579;DHT22;35483;50.828;3.228;2024-01-30T00:41:11;10.70;99.90
49579;DHT22;35483;50.828;3.228;2024-01-30T00:43:37;10.70;99.90
49579;DHT22;35483;50.828;3.228;2024-01-30T00:46:02;10.60;99.90
49579;DHT22;35483;50.828;3.228;2024-01-30T00:48:28;10.70;99.90
49579;DHT22;35483;50.828;3.228;2024-01-30T00:50:54;10.60;99.90
49579;DHT22;35483;50.828;3.228;2024-01-30T00:53:20;10.70;99.90
49579;DHT22;35483;50.828;3.228;2024-01-30T00:55:46;10.70;99.90
49579;DHT22;35483;50.828;3.228;2024-01-30T00:58:12;10.60;99.90
49579;DHT22;35483;50.828;3.228;2024-01-30T01:00:38;10.60;99.90
49579;DHT22;35483;50.828;3.228;2024-01-30T01:03:04;10.60;99.90
49579;DHT22;35483;50.828;3.228;2024-01-30T01:05:30;10.60;99.90
49579;DHT22;35483;50.828;3.228;2024-01-30T01:07:57;10.60;99.90
49579;DHT22;35483;50.828;3.228;2024-01-30T01:10:23;10.60;99.90
49579;DHT22;35483;50.828;3.228;2024-01-30T01:12:48;10.60;99.90
49579;DHT22;35483;50.828;3.228;2024-01-30T01:15:15;10.60;99.90
49579;DHT22;35483;50.828;3.228;2024-01-30T01:17:40;10.50;99.90
49579;DHT22;35483;50.828;3.228;2024-01-30T01:20:07;10.60;99.90
49579;DHT22;35483;50.828;3.228;2024-01-30T01:22:33;10.60;99.90
49579;DHT22;35483;50.828;3.228;2024-01-30T01:25:00;10.60;99.90
49579;DHT22;35483;50.828;3.228;2024-01-30T01:27:26;10.60;99.90
49579;DHT22;35483;50.828;3.228;2024-01-30T01:29:52;10.60;99.90
49579;DHT22;35483;50.828;3.228;2024-01-30T01:32:18;10.60;99.90
49579;DHT22;35483;50.828;3.228;2024-01-30T01:34:44;10.60;99.90
49579;DHT22;35483;50.828;3.228;2024-01-30T01:37:11;10.60;99.90
49579;DHT22;35483;50.828;3.228;2024-01-30T01:39:36;10.60;99.90
49579;DHT22;35483;50.828;3.228;2024-01-30T01:42:02;10.60;99.90
49579;DHT22;35483;50.828;3.228;2024-01-30T01:44:28;10.60;99.90
49579;DHT22;35483;50.828;3.228;2024-01-30T01:46:55;10.50;99.90
49579;DHT22;35483;50.828;3.228;2024-01-30T01:49:27;10.50;99.90
49579;DHT22;35483;50.828;3.228;2024-01-30T01:51:55;10.50;99.90
49579;DHT22;35483;50.828;3.228;2024-01-30T01:54:22;10.50;99.90
49579;DHT22;35483;50.828;3.228;2024-01-30T01:56:49;10.40;99.90
49579;DHT22;35483;50.828;3.228;2024-01-30T01:59:17;10.40;99.90
49579;DHT22;35483;50.828;3.228;2024-01-30T02:01:43;10.50;99.90
49579;DHT22;35483;50.828;3.228;2024-01-30T02:04:11;10.50;99.90
49579;DHT22;35483;50.828;3.228;2024-01-30T02:06:37;10.50;99.90
49579;DHT22;35483;50.828;3.228;2024-01-30T02:09:03;10.50;99.90
49579;DHT22;35483;50.828;3.228;2024-01-30T02:11:30;10.50;99.90
49579;DHT22;35483;50.828;3.228;2024-01-30T02:13:56;10.50;99.90
49579;DHT22;35483;50.828;3.228;2024-01-30T02:16:21;10.50;99.90
49579;DHT22;35483;50.828;3.228;2024-01-30T02:18:47;10.50;99.90
49579;DHT22;35483;50.828;3.228;2024-01-30T02:21:17;10.50;99.90
49579;DHT22;35483;50.828;3.228;2024-01-30T02:23:44;10.60;99.90
49579;DHT22;35483;50.828;3.228;2024-01-30T02:26:11;10.60;99.90
49579;DHT22;35483;50.828;3.228;2024-01-30T02:28:37;10.60;99.90
49579;DHT22;35483;50.828;3.228;2024-01-30T02:31:04;10.60;99.90
49579;DHT22;35483;50.828;3.228;2024-01-30T02:33:30;10.70;99.90
49579;DHT22;35483;50.828;3.228;2024-01-30T02:35:55;10.70;99.90
49579;DHT22;35483;50.828;3.228;2024-01-30T02:38:21;10.70;99.90
49579;DHT22;35483;50.828;3.228;2024-01-30T02:40:48;10.80;99.90
49579;DHT22;35483;50.828;3.228;2024-01-30T02:43:16;10.80;99.90
49579;DHT22;35483;50.828;3.228;2024-01-30T02:45:42;10.80;99.90
49579;DHT22;35483;50.828;3.228;2024-01-30T02:48:08;10.80;99.90
49579;DHT22;35483;50.828;3.228;2024-01-30T02:50:34;10.90;99.90
49579;DHT22;35483;50.828;3.228;2024-01-30T02:52:59;10.90;99.90
49579;DHT22;35483;50.828;3.228;2024-01-30T02:55:25;10.90;99.90
49579;DHT22;35483;50.828;3.228;2024-01-30T02:57:51;10.90;99.90
49579;DHT22;35483;50.828;3.228;2024-01-30T03:00:17;10.90;99.90
49579;DHT22;35483;50.828;3.228;2024-01-30T03:02:42;10.90;99.90
49579;DHT22;35483;50.828;3.228;2024-01-30T03:05:08;11.00;99.90
49579;DHT22;35483;50.828;3.228;2024-01-30T03:07:34;10.90;99.90
49579;DHT22;35483;50.828;3.228;2024-01-30T03:10:00;11.00;99.90
49579;DHT22;35483;50.828;3.228;2024-01-30T03:12:26;10.90;99.90
49579;DHT22;35483;50.828;3.228;2024-01-30T03:14:51;10.90;99.90
49579;DHT22;35483;50.828;3.228;2024-01-30T03:17:18;10.90;99.90
49579;DHT22;35483;50.828;3.228;2024-01-30T03:19:43;10.80;99.90
49579;DHT22;35483;50.828;3.228;2024-01-30T03:22:09;10.80;99.90
49579;DHT22;35483;50.828;3.228;2024-01-30T03:24:35;10.70;99.90
49579;DHT22;35483;50.828;3.228;2024-01-30T03:27:01;10.70;99.90
49579;DHT22;35483;50.828;3.228;2024-01-30T03:29:26;10.70;99.90
49579;DHT22;35483;50.828;3.228;2024-01-30T03:31:52;10.70;99.90
49579;DHT22;35483;50.828;3.228;2024-01-30T03:34:18;10.60;99.90
49579;DHT22;35483;50.828;3.228;2024-01-30T03:36:44;10.60;99.90
49579;DHT22;35483;50.828;3.228;2024-01-30T03:39:09;10.60;99.90
49579;DHT22;35483;50.828;3.228;2024-01-30T03:41:35;10.60;99.90
49579;DHT22;35483;50.828;3.228;2024-01-30T03:44:01;10.60;99.90
49579;DHT22;35483;50.828;3.228;2024-01-30T03:46:28;10.60;99.90
49579;DHT22;35483;50.828;3.228;2024-01-30T03:48:54;10.50;99.90
49579;DHT22;35483;50.828;3.228;2024-01-30T03:51:20;10.50;99.90
49579;DHT22;35483;50.828;3.228;2024-01-30T03:53:45;10.40;99.90
49579;DHT22;35483;50.828;3.228;2024-01-30T03:56:12;10.40;99.90
49579;DHT22;35483;50.828;3.228;2024-01-30T03:58:41;10.40;99.90
49579;DHT22;35483;50.828;3.228;2024-01-30T04:01:07;10.30;99.90
49579;DHT22;35483;50.828;3.228;2024-01-30T04:03:33;10.40;99.90
49579;DHT22;35483;50.828;3.228;2024-01-30T04:05:59;10.40;99.90
49579;DHT22;35483;50.828;3.228;2024-01-30T04:08:24;10.40;99.90
49579;DHT22;35483;50.828;3.228;2024-01-30T04:10:50;10.30;99.90
49579;DHT22;35483;50.828;3.228;2024-01-30T04:13:16;10.40;99.90
49579;DHT22;35483;50.828;3.228;2024-01-30T04:15:42;10.40;99.90
49579;DHT22;35483;50.828;3.228;2024-01-30T04:18:07;10.40;99.90
49579;DHT22;35483;50.828;3.228;2024-01-30T04:20:33;10.40;99.90
49579;DHT22;35483;50.828;3.228;2024-01-30T04:23:00;10.40;99.90
49579;DHT22;35483;50.828;3.228;2024-01-30T04:25:25;10.40;99.90
49579;DHT22;35483;50.828;3.228;2024-01-30T04:27:51;10.40;99.90
49579;DHT22;35483;50.828;3.228;2024-01-30T04:30:17;10.40;99.90
49579;DHT22;35483;50.828;3.228;2024-01-30T04:32:43;10.40;99.90
49579;DHT22;35483;50.828;3.228;2024-01-30T04:35:09;10.40;99.90
49579;DHT22;35483;50.828;3.228;2024-01-30T04:37:35;10.40;99.90
49579;DHT22;35483;50.828;3.228;2024-01-30T04:40:01;10.40;99.90
49579;DHT22;35483;50.828;3.228;2024-01-30T04:42:27;10.40;99.90
49579;DHT22;35483;50.828;3.228;2024-01-30T04:44:52;10.40;99.90
49579;DHT22;35483;50.828;3.228;2024-01-30T04:47:18;10.30;99.90
49579;DHT22;35483;50.828;3.228;2024-01-30T04:49:44;10.40;99.90
49579;DHT22;35483;50.828;3.228;2024-01-30T04:52:10;10.40;99.90
49579;DHT22;35483;50.828;3.228;2024-01-30T04:54:36;10.40;99.90
49579;DHT22;35483;50.828;3.228;2024-01-30T04:57:02;10.40;99.90
49579;DHT22;35483;50.828;3.228;2024-01-30T04:59:28;10.30;99.90
49579;DHT22;35483;50.828;3.228;2024-01-30T05:01:54;10.30;99.90
49579;DHT22;35483;50.828;3.228;2024-01-30T05:04:20;10.30;99.90
49579;DHT22;35483;50.828;3.228;2024-01-30T05:06:47;10.30;99.90
49579;DHT22;35483;50.828;3.228;2024-01-30T05:09:13;10.30;99.90
49579;DHT22;35483;50.828;3.228;2024-01-30T05:11:40;10.30;99.90
49579;DHT22;35483;50.828;3.228;2024-01-30T05:14:06;10.30;99.90
49579;DHT22;35483;50.828;3.228;2024-01-30T05:16:32;10.30;99.90
49579;DHT22;35483;50.828;3.228;2024-01-30T05:18:58;10.40;99.90
49579;DHT22;35483;50.828;3.228;2024-01-30T05:21:24;10.40;99.90
49579;DHT22;35483;50.828;3.228;2024-01-30T05:23:50;10.50;99.90
49579;DHT22;35483;50.828;3.228;2024-01-30T05:26:16;10.50;99.90
49579;DHT22;35483;50.828;3.228;2024-01-30T05:28:42;10.60;99.90
49579;DHT22;35483;50.828;3.228;2024-01-30T05:31:10;10.60;99.90
49579;DHT22;35483;50.828;3.228;2024-01-30T05:33:36;10.60;99.90
49579;DHT22;35483;50.828;3.228;2024-01-30T05:36:03;10.70;99.90
49579;DHT22;35483;50.828;3.228;2024-01-30T05:38:30;10.70;99.90
49579;DHT22;35483;50.828;3.228;2024-01-30T05:40:57;10.70;99.90
49579;DHT22;35483;50.828;3.228;2024-01-30T05:43:26;10.70;99.90
49579;DHT22;35483;50.828;3.228;2024-01-30T05:45:52;10.70;99.90
49579;DHT22;35483;50.828;3.228;2024-01-30T05:48:18;10.70;99.90
49579;DHT22;35483;50.828;3.228;2024-01-30T05:50:44;10.80;99.90
49579;DHT22;35483;50.828;3.228;2024-01-30T05:53:10;10.80;99.90
49579;DHT22;35483;50.828;3.228;2024-01-30T05:55:36;10.90;99.90
49579;DHT22;35483;50.828;3.228;2024-01-30T05:58:02;10.90;99.90
49579;DHT22;35483;50.828;3.228;2024-01-30T06:00:28;10.90;99.90
49579;DHT22;35483;50.828;3.228;2024-01-30T06:02:53;10.90;99.90
49579;DHT22;35483;50.828;3.228;2024-01-30T06:05:19;10.90;99.90
49579;DHT22;35483;50.828;3.228;2024-01-30T06:07:45;11.00;99.90
49579;DHT22;35483;50.828;3.228;2024-01-30T06:10:11;11.00;99.90
49579;DHT22;35483;50.828;3.228;2024-01-30T06:12:37;11.00;99.90
49579;DHT22;35483;50.828;3.228;2024-01-30T06:15:03;11.00;99.90
49579;DHT22;35483;50.828;3.228;2024-01-30T06:17:29;11.00;99.90
49579;DHT22;35483;50.828;3.228;2024-01-30T06:19:55;11.10;99.90
49579;DHT22;35483;50.828;3.228;2024-01-30T06:22:20;11.10;99.90
49579;DHT22;35483;50.828;3.228;2024-01-30T06:24:46;11.10;99.90
49579;DHT22;35483;50.828;3.228;2024-01-30T06:27:14;11.10;99.90
49579;DHT22;35483;50.828;3.228;2024-01-30T06:29:42;11.10;99.90
49579;DHT22;35483;50.828;3.228;2024-01-30T06:32:08;11.10;99.90
49579;DHT22;35483;50.828;3.228;2024-01-30T06:34:34;11.10;99.90
49579;DHT22;35483;50.828;3.228;2024-01-30T06:36:59;11.10;99.90
49579;DHT22;35483;50.828;3.228;2024-01-30T06:39:26;11.20;99.90
49579;DHT22;35483;50.828;3.228;2024-01-30T06:41:52;11.10;99.90
49579;DHT22;35483;50.828;3.228;2024-01-30T06:44:18;11.20;99.90
49579;DHT22;35483;50.828;3.228;2024-01-30T06:46:43;11.20;99.90
49579;DHT22;35483;50.828;3.228;2024-01-30T06:49:09;11.20;99.90
49579;DHT22;35483;50.828;3.228;2024-01-30T06:51:35;11.20;99.90
49579;DHT22;35483;50.828;3.228;2024-01-30T06:54:01;11.20;99.90
49579;DHT22;35483;50.828;3.228;2024-01-30T06:56:26;11.20;99.90
49579;DHT22;35483;50.828;3.228;2024-01-30T06:58:52;11.20;99.90
49579;DHT22;35483;50.828;3.228;2024-01-30T07:01:18;11.20;99.90
49579;DHT22;35483;50.828;3.228;2024-01-30T07:03:44;11.20;99.90
49579;DHT22;35483;50.828;3.228;2024-01-30T07:06:10;11.30;99.90
49579;DHT22;35483;50.828;3.228;2024-01-30T07:08:38;11.20;99.90
49579;DHT22;35483;50.828;3.228;2024-01-30T07:11:05;11.20;99.90
49579;DHT22;35483;50.828;3.228;2024-01-30T07:13:32;11.30;99.90
49579;DHT22;35483;50.828;3.228;2024-01-30T07:15:57;11.20;99.90
49579;DHT22;35483;50.828;3.228;2024-01-30T07:18:23;11.20;99.90
49579;DHT22;35483;50.828;3.228;2024-01-30T07:20:49;11.30;99.90
49579;DHT22;35483;50.828;3.228;2024-01-30T07:23:16;11.30;99.90
49579;DHT22;35483;50.828;3.228;2024-01-30T07:25:46;11.30;99.90
49579;DHT22;35483;50.828;3.228;2024-01-30T07:28:14;11.30;99.90
49579;DHT22;35483;50.828;3.228;2024-01-30T07:30:42;11.30;99.90
49579;DHT22;35483;50.828;3.228;2024-01-30T07:33:08;11.30;99.90
49579;DHT22;35483;50.828;3.228;2024-01-30T07:35:36;11.40;99.90
49579;DHT22;35483;50.828;3.228;2024-01-30T07:38:02;11.40;99.90
49579;DHT22;35483;50.828;3.228;2024-01-30T07:40:28;11.40;99.90
49579;DHT22;35483;50.828;3.228;2024-01-30T07:42:54;11.40;99.90
49579;DHT22;35483;50.828;3.228;2024-01-30T07:45:20;11.40;99.90
49579;DHT22;35483;50.828;3.228;2024-01-30T07:47:49;11.40;99.90
49579;DHT22;35483;50.828;3.228;2024-01-30T07:50:15;11.40;99.90
49579;DHT22;35483;50.828;3.228;2024-01-30T07:52:41;11.40;99.90
49579;DHT22;35483;50.828;3.228;2024-01-30T07:55:06;11.40;99.90
49579;DHT22;35483;50.828;3.228;2024-01-30T07:57:33;11.50;99.90
49579;DHT22;35483;50.828;3.228;2024-01-30T08:00:02;11.50;99.90
49579;DHT22;35483;50.828;3.228;2024-01-30T08:02:31;11.50;99.90
49579;DHT22;35483;50.828;3.228;2024-01-30T08:04:56;11.50;99.90
49579;DHT22;35483;50.828;3.228;2024-01-30T08:07:22;11.50;99.90
49579;DHT22;35483;50.828;3.228;2024-01-30T08:09:48;11.50;99.90
49579;DHT22;35483;50.828;3.228;2024-01-30T08:12:16;11.50;99.90
49579;DHT22;35483;50.828;3.228;2024-01-30T08:14:42;11.50;99.90
49579;DHT22;35483;50.828;3.228;2024-01-30T08:17:08;11.40;99.90
49579;DHT22;35483;50.828;3.228;2024-01-30T08:19:34;11.50;99.90
49579;DHT22;35483;50.828;3.228;2024-01-30T08:21:59;11.50;99.90
49579;DHT22;35483;50.828;3.228;2024-01-30T08:24:26;11.50;99.90
49579;DHT22;35483;50.828;3.228;2024-01-30T08:26:52;11.60;99.90
49579;DHT22;35483;50.828;3.228;2024-01-30T08:29:17;11.60;99.90
49579;DHT22;35483;50.828;3.228;2024-01-30T08:31:43;11.60;99.90
49579;DHT22;35483;50.828;3.228;2024-01-30T08:34:09;11.50;99.90
49579;DHT22;35483;50.828;3.228;2024-01-30T08:36:36;11.60;99.90
49579;DHT22;35483;50.828;3.228;2024-01-30T08:39:02;11.60;99.90
49579;DHT22;35483;50.828;3.228;2024-01-30T08:41:28;11.60;99.90
49579;DHT22;35483;50.828;3.228;2024-01-30T08:43:54;11.60;99.90
49579;DHT22;35483;50.828;3.228;2024-01-30T08:46:19;11.60;99.90
49579;DHT22;35483;50.828;3.228;2024-01-30T08:48:46;11.70;99.90
49579;DHT22;35483;50.828;3.228;2024-01-30T08:51:13;11.70;99.90
49579;DHT22;35483;50.828;3.228;2024-01-30T08:53:39;11.80;99.90
49579;DHT22;35483;50.828;3.228;2024-01-30T08:56:06;11.80;99.90
49579;DHT22;35483;50.828;3.228;2024-01-30T08:58:32;11.80;99.90
49579;DHT22;35483;50.828;3.228;2024-01-30T09:00:58;11.70;99.90
49579;DHT22;35483;50.828;3.228;2024-01-30T09:03:24;11.70;99.90
49579;DHT22;35483;50.828;3.228;2024-01-30T09:05:49;11.70;99.90
49579;DHT22;35483;50.828;3.228;2024-01-30T09:08:15;11.70;99.90
49579;DHT22;35483;50.828;3.228;2024-01-30T09:10:41;11.70;99.90
49579;DHT22;35483;50.828;3.228;2024-01-30T09:13:06;11.70;99.90
49579;DHT22;35483;50.828;3.228;2024-01-30T09:15:32;11.60;99.90
49579;DHT22;35483;50.828;3.228;2024-01-30T09:17:58;11.60;99.90
49579;DHT22;35483;50.828;3.228;2024-01-30T09:20:23;11.70;99.90
49579;DHT22;35483;50.828;3.228;2024-01-30T09:22:49;11.70;99.90
49579;DHT22;35483;50.828;3.228;2024-01-30T09:25:15;11.60;99.90
49579;DHT22;35483;50.828;3.228;2024-01-30T09:27:41;11.60;99.90
49579;DHT22;35483;50.828;3.228;2024-01-30T09:30:07;11.50;99.90
49579;DHT22;35483;50.828;3.228;2024-01-30T09:32:33;11.30;99.90
49579;DHT22;35483;50.828;3.228;2024-01-30T09:34:59;11.30;99.90
49579;DHT22;35483;50.828;3.228;2024-01-30T09:37:24;11.20;99.90
49579;DHT22;35483;50.828;3.228;2024-01-30T09:39:50;11.20;99.90
49579;DHT22;35483;50.828;3.228;2024-01-30T09:42:33;11.30;99.90
49579;DHT22;35483;50.828;3.228;2024-01-30T09:45:03;11.30;99.90
49579;DHT22;35483;50.828;3.228;2024-01-30T09:47:41;11.30;99.90
49579;DHT22;35483;50.828;3.228;2024-01-30T09:50:11;11.40;99.90
49579;DHT22;35483;50.828;3.228;2024-01-30T09:52:37;11.40;99.90
49579;DHT22;35483;50.828;3.228;2024-01-30T09:55:05;11.50;99.90
49579;DHT22;35483;50.828;3.228;2024-01-30T09:57:31;11.50;99.90
49579;DHT22;35483;50.828;3.228;2024-01-30T09:59:57;11.50;99.90
49579;DHT22;35483;50.828;3.228;2024-01-30T10:02:23;11.50;99.90
49579;DHT22;35483;50.828;3.228;2024-01-30T10:04:50;11.50;99.90
49579;DHT22;35483;50.828;3.228;2024-01-30T10:07:17;11.50;99.90
49579;DHT22;35483;50.828;3.228;2024-01-30T10:09:42;11.60;99.90
49579;DHT22;35483;50.828;3.228;2024-01-30T10:12:12;11.70;99.90
49579;DHT22;35483;50.828;3.228;2024-01-30T10:14:38;11.80;99.90
49579;DHT22;35483;50.828;3.228;2024-01-30T10:17:04;11.80;99.90
49579;DHT22;35483;50.828;3.228;2024-01-30T10:19:31;11.90;99.90
49579;DHT22;35483;50.828;3.228;2024-01-30T10:21:57;11.90;99.90
49579;DHT22;35483;50.828;3.228;2024-01-30T10:24:26;11.90;99.90
49579;DHT22;35483;50.828;3.228;2024-01-30T10:26:53;11.90;99.90
49579;DHT22;35483;50.828;3.228;2024-01-30T10:29:19;12.00;99.90
49579;DHT22;35483;50.828;3.228;2024-01-30T10:32:06;12.00;99.90
49579;DHT22;35483;50.828;3.228;2024-01-30T10:34:32;12.10;99.90
49579;DHT22;35483;50.828;3.228;2024-01-30T10:39:29;12.10;99.90
49579;DHT22;35483;50.828;3.228;2024-01-30T10:42:01;12.10;99.90
49579;DHT22;35483;50.828;3.228;2024-01-30T10:44:30;12.10;99.90
49579;DHT22;35483;50.828;3.228;2024-01-30T10:47:06;12.10;99.90
49579;DHT22;35483;50.828;3.228;2024-01-30T10:49:37;12.10;99.90
49579;DHT22;35483;50.828;3.228;2024-01-30T10:52:05;12.00;99.90
49579;DHT22;35483;50.828;3.228;2024-01-30T10:54:31;12.00;99.90
49579;DHT22;35483;50.828;3.228;2024-01-30T10:57:00;12.00;99.90
49579;DHT22;35483;50.828;3.228;2024-01-30T10:59:28;12.00;99.90
49579;DHT22;35483;50.828;3.228;2024-01-30T11:01:54;12.10;99.90
49579;DHT22;35483;50.828;3.228;2024-01-30T11:04:20;12.00;99.90
49579;DHT22;35483;50.828;3.228;2024-01-30T11:06:49;12.00;99.90
49579;DHT22;35483;50.828;3.228;2024-01-30T11:09:17;12.00;99.90
49579;DHT22;35483;50.828;3.228;2024-01-30T11:14:15;11.90;99.90
49579;DHT22;35483;50.828;3.228;2024-01-30T11:16:41;11.90;99.90
49579;DHT22;35483;50.828;3.228;2024-01-30T11:19:11;12.00;99.90
49579;DHT22;35483;50.828;3.228;2024-01-30T11:21:43;12.00;99.90
49579;DHT22;35483;50.828;3.228;2024-01-30T11:24:09;12.00;99.90
49579;DHT22;35483;50.828;3.228;2024-01-30T11:26:35;12.00;99.90
49579;DHT22;35483;50.828;3.228;2024-01-30T11:29:06;11.90;99.90
49579;DHT22;35483;50.828;3.228;2024-01-30T11:31:32;12.00;99.90
49579;DHT22;35483;50.828;3.228;2024-01-30T11:33:58;11.90;99.90
49579;DHT22;35483;50.828;3.228;2024-01-30T11:36:25;12.00;99.90
49579;DHT22;35483;50.828;3.228;2024-01-30T11:38:52;11.90;99.90
49579;DHT22;35483;50.828;3.228;2024-01-30T11:41:17;11.80;99.90
49579;DHT22;35483;50.828;3.228;2024-01-30T11:43:52;11.80;99.90
49579;DHT22;35483;50.828;3.228;2024-01-30T11:46:18;11.80;99.90
49579;DHT22;35483;50.828;3.228;2024-01-30T11:48:44;11.80;99.90
49579;DHT22;35483;50.828;3.228;2024-01-30T11:51:10;11.70;99.90
49579;DHT22;35483;50.828;3.228;2024-01-30T11:53:38;11.80;99.90
49579;DHT22;35483;50.828;3.228;2024-01-30T11:56:06;11.80;99.90
49579;DHT22;35483;50.828;3.228;2024-01-30T11:58:32;11.80;99.90
49579;DHT22;35483;50.828;3.228;2024-01-30T12:00:58;11.80;99.90
49579;DHT22;35483;50.828;3.228;2024-01-30T12:03:24;11.80;99.90
49579;DHT22;35483;50.828;3.228;2024-01-30T12:05:59;11.80;99.90
49579;DHT22;35483;50.828;3.228;2024-01-30T12:08:24;11.80;99.90
49579;DHT22;35483;50.828;3.228;2024-01-30T12:10:58;11.90;99.90
49579;DHT22;35483;50.828;3.228;2024-01-30T12:13:31;11.90;99.90
49579;DHT22;35483;50.828;3.228;2024-01-30T12:15:57;11.90;99.90
49579;DHT22;35483;50.828;3.228;2024-01-30T12:18:22;11.90;99.90
49579;DHT22;35483;50.828;3.228;2024-01-30T12:20:58;11.90;99.90
49579;DHT22;35483;50.828;3.228;2024-01-30T12:23:26;11.90;99.90
49579;DHT22;35483;50.828;3.228;2024-01-30T12:25:52;11.90;99.90
49579;DHT22;35483;50.828;3.228;2024-01-30T12:28:19;11.80;99.90
49579;DHT22;35483;50.828;3.228;2024-01-30T12:30:44;11.80;99.90
49579;DHT22;35483;50.828;3.228;2024-01-30T12:33:16;11.70;99.90
49579;DHT22;35483;50.828;3.228;2024-01-30T12:35:46;11.70;99.90
49579;DHT22;35483;50.828;3.228;2024-01-30T12:38:13;11.70;99.90
49579;DHT22;35483;50.828;3.228;2024-01-30T12:40:39;11.70;99.90
49579;DHT22;35483;50.828;3.228;2024-01-30T12:43:05;11.70;99.90
49579;DHT22;35483;50.828;3.228;2024-01-30T12:45:31;11.70;99.90
49579;DHT22;35483;50.828;3.228;2024-01-30T12:47:56;11.80;99.90
49579;DHT22;35483;50.828;3.228;2024-01-30T12:50:24;11.80;99.90
49579;DHT22;35483;50.828;3.228;2024-01-30T12:52:50;11.90;99.90
49579;DHT22;35483;50.828;3.228;2024-01-30T12:55:17;11.90;99.90
49579;DHT22;35483;50.828;3.228;2024-01-30T12:57:43;12.00;99.90
49579;DHT22;35483;50.828;3.228;2024-01-30T13:00:09;12.00;99.90
49579;DHT22;35483;50.828;3.228;2024-01-30T13:02:35;11.90;99.90
49579;DHT22;35483;50.828;3.228;2024-01-30T13:05:03;11.80;99.90
49579;DHT22;35483;50.828;3.228;2024-01-30T13:07:30;11.70;99.90
49579;DHT22;35483;50.828;3.228;2024-01-30T13:09:56;11.70;99.90
49579;DHT22;35483;50.828;3.228;2024-01-30T13:12:28;11.60;99.90
49579;DHT22;35483;50.828;3.228;2024-01-30T13:14:54;11.60;99.90
49579;DHT22;35483;50.828;3.228;2024-01-30T13:17:20;11.50;99.90
49579;DHT22;35483;50.828;3.228;2024-01-30T13:19:46;11.50;99.90
49579;DHT22;35483;50.828;3.228;2024-01-30T13:22:11;11.50;99.90
49579;DHT22;35483;50.828;3.228;2024-01-30T13:24:37;11.50;99.90
49579;DHT22;35483;50.828;3.228;2024-01-30T13:27:03;11.50;99.90
49579;DHT22;35483;50.828;3.228;2024-01-30T13:29:31;11.40;99.90
49579;DHT22;35483;50.828;3.228;2024-01-30T13:31:57;11.50;99.90
49579;DHT22;35483;50.828;3.228;2024-01-30T13:34:22;11.50;99.90
49579;DHT22;35483;50.828;3.228;2024-01-30T13:36:48;11.50;99.90
49579;DHT22;35483;50.828;3.228;2024-01-30T13:39:14;11.50;99.90
49579;DHT22;35483;50.828;3.228;2024-01-30T13:41:41;11.50;99.90
49579;DHT22;35483;50.828;3.228;2024-01-30T13:44:08;11.50;99.90
49579;DHT22;35483;50.828;3.228;2024-01-30T13:46:35;11.50;99.90
49579;DHT22;35483;50.828;3.228;2024-01-30T13:49:01;11.50;99.90
49579;DHT22;35483;50.828;3.228;2024-01-30T13:51:27;11.50;99.90
49579;DHT22;35483;50.828;3.228;2024-01-30T13:53:53;11.50;99.90
49579;DHT22;35483;50.828;3.228;2024-01-30T13:56:20;11.50;99.90
49579;DHT22;35483;50.828;3.228;2024-01-30T13:58:48;11.50;99.90
49579;DHT22;35483;50.828;3.228;2024-01-30T14:01:14;11.50;99.90
49579;DHT22;35483;50.828;3.228;2024-01-30T14:03:40;11.50;99.90
49579;DHT22;35483;50.828;3.228;2024-01-30T14:06:06;11.50;99.90
49579;DHT22;35483;50.828;3.228;2024-01-30T14:08:32;11.50;99.90
49579;DHT22;35483;50.828;3.228;2024-01-30T14:10:58;11.60;99.90
49579;DHT22;35483;50.828;3.228;2024-01-30T14:13:23;11.50;99.90
49579;DHT22;35483;50.828;3.228;2024-01-30T14:15:51;11.50;99.90
49579;DHT22;35483;50.828;3.228;2024-01-30T14:18:17;11.50;99.90
49579;DHT22;35483;50.828;3.228;2024-01-30T14:20:43;11.50;99.90
49579;DHT22;35483;50.828;3.228;2024-01-30T14:23:09;11.40;99.90
49579;DHT22;35483;50.828;3.228;2024-01-30T14:25:35;11.40;99.90
49579;DHT22;35483;50.828;3.228;2024-01-30T14:28:00;11.30;99.90
49579;DHT22;35483;50.828;3.228;2024-01-30T14:30:26;11.20;99.90
49579;DHT22;35483;50.828;3.228;2024-01-30T14:32:52;11.20;99.90
49579;DHT22;35483;50.828;3.228;2024-01-30T14:35:18;11.30;99.90
49579;DHT22;35483;50.828;3.228;2024-01-30T14:37:45;11.20;99.90
49579;DHT22;35483;50.828;3.228;2024-01-30T14:40:11;11.20;99.90
49579;DHT22;35483;50.828;3.228;2024-01-30T14:42:37;11.20;99.90
49579;DHT22;35483;50.828;3.228;2024-01-30T14:45:04;11.20;99.90
49579;DHT22;35483;50.828;3.228;2024-01-30T14:47:29;11.20;99.90
49579;DHT22;35483;50.828;3.228;2024-01-30T14:49:57;11.10;99.90
49579;DHT22;35483;50.828;3.228;2024-01-30T14:52:23;11.10;99.90
49579;DHT22;35483;50.828;3.228;2024-01-30T14:54:49;11.00;99.90
49579;DHT22;35483;50.828;3.228;2024-01-30T14:57:15;11.00;99.90
49579;DHT22;35483;50.828;3.228;2024-01-30T14:59:40;11.00;99.90
49579;DHT22;35483;50.828;3.228;2024-01-30T15:02:06;11.00;99.90
49579;DHT22;35483;50.828;3.228;2024-01-30T15:04:32;11.00;99.90
49579;DHT22;35483;50.828;3.228;2024-01-30T15:06:58;11.00;99.90
49579;DHT22;35483;50.828;3.228;2024-01-30T15:09:23;10.90;99.90
49579;DHT22;35483;50.828;3.228;2024-01-30T15:11:51;11.00;99.90
49579;DHT22;35483;50.828;3.228;2024-01-30T15:14:17;10.90;99.90
49579;DHT22;35483;50.828;3.228;2024-01-30T15:16:43;11.00;99.90
49579;DHT22;35483;50.828;3.228;2024-01-30T15:19:09;11.00;99.90
49579;DHT22;35483;50.828;3.228;2024-01-30T15:21:34;10.90;99.90
49579;DHT22;35483;50.828;3.228;2024-01-30T15:24:01;10.90;99.90
49579;DHT22;35483;50.828;3.228;2024-01-30T15:26:27;10.90;99.90
49579;DHT22;35483;50.828;3.228;2024-01-30T15:28:53;10.90;99.90
49579;DHT22;35483;50.828;3.228;2024-01-30T15:31:19;10.90;99.90